createdAt,value
2022-07-31T00:04:16.990Z,99432.88
2022-07-31T00:09:53.848Z,99426.81
2022-07-31T00:14:45.380Z,99427.59
2022-07-31T00:19:48.520Z,99427.56
2022-07-31T00:24:51.994Z,99428.50
2022-07-31T00:29:56.713Z,99425.84
2022-07-31T00:34:59.954Z,99429.31
2022-07-31T00:40:04.035Z,99425.94
2022-07-31T00:45:09.898Z,99424.28
2022-07-31T00:50:16.951Z,99423.41
2022-07-31T00:55:20.481Z,99427.56
2022-07-31T01:00:25.198Z,99427.38
2022-07-31T01:05:28.229Z,99427.38
2022-07-31T01:10:43.145Z,99430.84
2022-07-31T01:15:47.913Z,99427.53
2022-07-31T01:20:53.787Z,99421.69
2022-07-31T01:26:05.447Z,99429.41
2022-07-31T01:31:26.857Z,99424.72
2022-07-31T01:36:35.455Z,99425.25
2022-07-31T01:41:43.162Z,99426.69
2022-07-31T01:46:49.335Z,99422.25
2022-07-31T01:51:54.892Z,99436.16
2022-07-31T01:57:08.998Z,99420.38
2022-07-31T02:02:13.802Z,99418.59
2022-07-31T02:07:19.353Z,99417.50
2022-07-31T02:12:33.065Z,99422.63
2022-07-31T02:17:59.123Z,99415.44
2022-07-31T02:23:02.718Z,99411.09
2022-07-31T02:28:12.226Z,99411.91
2022-07-31T02:33:20.952Z,99397.72
2022-07-31T02:38:27.936Z,99408.50
2022-07-31T02:43:33.199Z,99415.97
2022-07-31T02:48:38.749Z,99403.78
2022-07-31T02:53:42.327Z,99409.53
2022-07-31T02:58:45.885Z,99400.84
2022-07-31T03:03:51.373Z,99402.31
2022-07-31T03:08:54.671Z,99412.56
2022-07-31T03:13:59.872Z,99404.28
2022-07-31T03:19:05.454Z,99421.09
2022-07-31T03:24:10.618Z,99419.34
2022-07-31T03:29:38.877Z,99418.13
2022-07-31T03:34:38.907Z,99410.06
2022-07-31T03:39:43.038Z,99421.47
2022-07-31T03:44:47.710Z,99424.22
2022-07-31T03:49:52.658Z,99436.81
2022-07-31T03:54:56.537Z,99430.88
2022-07-31T04:00:03.826Z,99433.84
2022-07-31T04:05:10.310Z,99430.09
2022-07-31T04:10:13.788Z,99433.06
2022-07-31T04:15:17.132Z,99444.38
2022-07-31T04:20:22.066Z,99442.66
2022-07-31T04:25:25.363Z,99440.06
2022-07-31T04:30:28.883Z,99440.97
2022-07-31T04:35:33.325Z,99436.25
2022-07-31T04:40:36.663Z,99434.44
2022-07-31T04:45:40.178Z,99441.94
2022-07-31T04:50:44.999Z,99431.78
2022-07-31T04:56:08.625Z,99435.22
2022-07-31T05:01:11.986Z,99429.81
2022-07-31T05:06:20.064Z,99430.03
2022-07-31T05:11:26.600Z,99431.28
2022-07-31T05:16:31.323Z,99427.97
2022-07-31T05:21:47.129Z,99431.84
2022-07-31T05:26:57.409Z,99436.59
2022-07-31T05:32:01.430Z,99432.56
2022-07-31T05:37:06.464Z,99425.25
2022-07-31T05:42:09.828Z,99420.44
2022-07-31T05:47:13.230Z,99418.53
2022-07-31T05:52:19.810Z,99417.03
2022-07-31T05:57:33.015Z,99412.25
2022-07-31T06:02:37.626Z,99409.13
2022-07-31T06:07:44.508Z,99414.47
2022-07-31T06:12:54.831Z,99405.47
2022-07-31T06:17:59.314Z,99402.06
2022-07-31T06:23:04.073Z,99404.97
2022-07-31T06:28:37.885Z,99414.41
2022-07-31T06:33:50.989Z,99412.47
2022-07-31T06:38:55.855Z,99409.94
2022-07-31T06:43:59.215Z,99404.34
2022-07-31T06:49:05.622Z,99389.94
2022-07-31T06:54:13.562Z,99392.31
2022-07-31T06:59:23.649Z,99376.06
2022-07-31T07:05:00.048Z,99378.69
2022-07-31T07:10:06.229Z,99366.06
2022-07-31T07:15:10.847Z,99372.44
2022-07-31T07:20:14.698Z,99373.59
2022-07-31T07:25:20.638Z,99380.88
2022-07-31T07:30:23.979Z,99367.50
2022-07-31T07:35:28.618Z,99374.09
2022-07-31T07:40:35.569Z,99376.47
2022-07-31T07:45:40.071Z,99364.97
2022-07-31T07:50:43.589Z,99362.34
2022-07-31T07:55:47.976Z,99367.47
2022-07-31T08:00:51.349Z,99363.91
2022-07-31T08:05:54.733Z,99363.22
2022-07-31T08:11:01.224Z,99356.03
2022-07-31T08:16:04.716Z,99360.53
2022-07-31T08:21:08.154Z,99363.09
2022-07-31T08:26:13.789Z,99359.66
2022-07-31T08:31:17.514Z,99363.53
2022-07-31T08:36:20.795Z,99360.88
2022-07-31T08:41:25.576Z,99355.41
2022-07-31T08:46:29.937Z,99353.53
2022-07-31T08:51:50.948Z,99362.13
2022-07-31T08:56:56.620Z,99351.03
2022-07-31T09:02:00.039Z,99347.97
2022-07-31T09:07:03.722Z,99342.59
2022-07-31T09:12:09.585Z,99339.09
2022-07-31T09:17:15.931Z,99339.44
2022-07-31T09:22:23.670Z,99342.41
2022-07-31T09:27:30.779Z,99334.00
2022-07-31T09:32:34.114Z,99329.97
2022-07-31T09:37:37.442Z,99329.41
2022-07-31T09:42:55.354Z,99326.25
2022-07-31T09:48:08.313Z,99325.69
2022-07-31T09:53:15.778Z,99334.31
2022-07-31T09:58:20.614Z,99337.78
2022-07-31T10:03:26.013Z,99345.16
2022-07-31T10:08:30.574Z,99336.28
2022-07-31T10:13:40.587Z,99339.44
2022-07-31T10:18:49.747Z,99347.66
2022-07-31T10:23:55.381Z,99347.03
2022-07-31T10:29:00.609Z,99349.75
2022-07-31T10:34:04.243Z,99344.78
2022-07-31T10:39:15.850Z,99338.59
2022-07-31T10:44:24.512Z,99347.34
2022-07-31T10:49:49.967Z,99342.06
2022-07-31T10:54:54.760Z,99324.81
2022-07-31T11:00:11.948Z,99325.28
2022-07-31T11:05:17.139Z,99314.19
2022-07-31T11:10:22.910Z,99318.22
2022-07-31T11:15:28.161Z,99312.59
2022-07-31T11:20:32.814Z,99307.50
2022-07-31T11:25:37.502Z,99307.44
2022-07-31T11:30:56.533Z,99299.22
2022-07-31T11:36:07.540Z,99301.09
2022-07-31T11:41:11.383Z,99301.94
2022-07-31T11:46:26.775Z,99303.78
2022-07-31T11:51:31.334Z,99296.50
2022-07-31T11:56:34.986Z,99298.63
2022-07-31T12:01:40.603Z,99303.66
2022-07-31T12:06:44.342Z,99300.94
2022-07-31T12:11:48.099Z,99302.97
2022-07-31T12:16:52.798Z,99294.56
2022-07-31T12:21:56.439Z,99297.56
2022-07-31T12:27:00.288Z,99297.59
2022-07-31T12:32:06.011Z,99300.88
2022-07-31T12:37:11.149Z,99297.72
2022-07-31T12:42:29.179Z,99294.94
2022-07-31T12:47:38.070Z,99292.63
2022-07-31T12:52:41.454Z,99280.47
2022-07-31T12:57:50.650Z,99287.81
2022-07-31T13:02:58.398Z,99290.47
2022-07-31T13:08:01.837Z,99286.25
2022-07-31T13:13:05.076Z,99281.75
2022-07-31T13:18:09.852Z,99276.53
2022-07-31T13:23:13.202Z,99281.84
2022-07-31T13:28:16.598Z,99278.38
2022-07-31T13:33:21.318Z,99272.78
2022-07-31T13:38:24.822Z,99263.78
2022-07-31T13:43:28.250Z,99266.66
2022-07-31T13:48:33.613Z,99258.91
2022-07-31T13:53:36.989Z,99253.56
2022-07-31T13:58:40.487Z,99249.84
2022-07-31T14:03:45.515Z,99246.16
2022-07-31T14:08:51.279Z,99248.38
2022-07-31T14:13:54.643Z,99242.56
2022-07-31T14:18:59.599Z,99229.22
2022-07-31T14:24:03.047Z,99221.13
2022-07-31T14:29:07.279Z,99232.75
2022-07-31T14:34:12.250Z,99237.31
2022-07-31T14:39:15.814Z,99229.09
2022-07-31T14:44:21.873Z,99225.69
2022-07-31T14:50:06.991Z,99229.50
2022-07-31T14:54:59.860Z,99228.81
2022-07-31T15:00:03.390Z,99227.31
2022-07-31T15:06:40.037Z,99237.16
2022-07-31T15:10:32.948Z,99233.91
2022-07-31T15:15:36.383Z,99224.72
2022-07-31T15:20:41.196Z,99233.63
2022-07-31T15:25:44.596Z,99230.53
2022-07-31T15:30:49.344Z,99239.00
2022-07-31T15:35:54.121Z,99243.50
2022-07-31T15:40:57.539Z,99240.38
2022-07-31T15:46:06.855Z,99247.22
2022-07-31T15:51:11.986Z,99249.69
2022-07-31T15:56:15.625Z,99251.09
2022-07-31T16:01:19.540Z,99247.63
2022-07-31T16:06:27.946Z,99248.56
2022-07-31T16:12:04.488Z,99246.66
2022-07-31T16:16:58.853Z,99239.28
2022-07-31T16:22:03.589Z,99249.66
2022-07-31T16:27:07.234Z,99256.81
2022-07-31T16:32:10.884Z,99261.38
2022-07-31T16:37:16.249Z,99271.19
2022-07-31T16:42:19.593Z,99270.41
2022-07-31T16:47:45.703Z,99272.72
2022-07-31T16:52:56.034Z,99275.81
2022-07-31T16:57:59.642Z,99280.19
2022-07-31T17:03:03.021Z,99283.84
2022-07-31T17:08:08.429Z,99268.88
2022-07-31T17:13:11.837Z,99288.50
2022-07-31T17:18:15.237Z,99286.09
2022-07-31T17:23:42.998Z,99290.16
2022-07-31T17:28:43.419Z,99299.88
2022-07-31T17:33:58.434Z,99293.06
2022-07-31T17:39:06.184Z,99300.09
2022-07-31T17:44:09.495Z,99303.53
2022-07-31T17:49:20.361Z,99298.16
2022-07-31T17:54:26.173Z,99308.03
2022-07-31T17:59:31.734Z,99307.00
2022-07-31T18:04:35.673Z,99314.44
2022-07-31T18:09:40.531Z,99308.59
2022-07-31T18:14:44.052Z,99318.25
2022-07-31T18:19:48.198Z,99305.47
2022-07-31T18:24:53.136Z,99315.28
2022-07-31T18:29:56.591Z,99306.53
2022-07-31T18:35:00.689Z,99306.53
2022-07-31T18:40:07.114Z,99311.66
2022-07-31T18:45:11.441Z,99306.78
2022-07-31T18:51:01.287Z,99313.00
2022-07-31T18:55:39.661Z,99313.44
2022-07-31T19:00:44.845Z,99321.56
2022-07-31T19:05:50.235Z,99322.09
2022-07-31T19:10:55.097Z,99323.47
2022-07-31T19:15:58.498Z,99318.22
2022-07-31T19:21:21.286Z,99319.25
2022-07-31T19:26:27.782Z,99316.72
2022-07-31T19:31:31.080Z,99324.84
2022-07-31T19:36:34.629Z,99315.41
2022-07-31T19:41:39.616Z,99319.94
2022-07-31T19:46:42.951Z,99327.16
2022-07-31T19:51:46.294Z,99321.50
2022-07-31T19:56:51.138Z,99326.31
2022-07-31T20:01:55.290Z,99331.88
2022-07-31T20:06:58.665Z,99330.53
2022-07-31T20:12:03.860Z,99331.69
2022-07-31T20:17:07.435Z,99334.63
2022-07-31T20:22:11.451Z,99337.41
2022-07-31T20:27:16.142Z,99342.75
2022-07-31T20:32:21.651Z,99342.31
2022-07-31T20:37:27.006Z,99341.66
2022-07-31T20:42:31.838Z,99360.34
2022-07-31T20:47:35.185Z,99359.75
2022-07-31T20:52:38.644Z,99351.06
2022-07-31T20:57:44.481Z,99351.69
2022-07-31T21:02:47.992Z,99358.53
2022-07-31T21:07:53.294Z,99352.34
2022-07-31T21:12:59.089Z,99353.97
2022-07-31T21:18:03.646Z,99353.09
2022-07-31T21:23:07.024Z,99352.19
2022-07-31T21:28:15.683Z,99357.44
2022-07-31T21:33:19.346Z,99355.06
2022-07-31T21:38:22.903Z,99357.50
2022-07-31T21:43:45.815Z,99351.22
2022-07-31T21:48:54.431Z,99357.09
2022-07-31T21:53:59.264Z,99359.66
2022-07-31T21:59:03.951Z,99354.50
2022-07-31T22:04:07.427Z,99351.34
2022-07-31T22:09:10.783Z,99344.78
2022-07-31T22:14:15.517Z,99354.22
2022-07-31T22:19:19.316Z,99368.22
2022-07-31T22:24:22.931Z,99372.53
2022-07-31T22:29:29.627Z,99367.69
2022-07-31T22:34:37.701Z,99366.44
2022-07-31T22:39:41.651Z,99377.94
2022-07-31T22:44:46.671Z,99342.16
2022-07-31T22:49:50.182Z,99374.81
2022-07-31T22:54:53.899Z,99371.91
2022-07-31T22:59:58.669Z,99375.47
2022-07-31T23:05:02.026Z,99372.19
2022-07-31T23:10:07.800Z,99370.28
2022-07-31T23:15:12.731Z,99381.47
2022-07-31T23:20:16.135Z,99386.81
2022-07-31T23:25:20.928Z,99384.28
2022-07-31T23:30:27.569Z,99381.47
2022-07-31T23:35:30.880Z,99377.22
2022-07-31T23:40:34.219Z,99386.91
2022-07-31T23:45:39.017Z,99378.31
2022-07-31T23:50:44.391Z,99386.31
2022-07-31T23:55:47.682Z,99388.19
